createdAt,value
2022-08-16T00:03:37.637Z,21.95
2022-08-16T00:06:05.005Z,21.91
2022-08-16T00:08:37.404Z,21.83
2022-08-16T00:11:07.623Z,21.85
2022-08-16T00:13:41.636Z,21.87
2022-08-16T00:17:05.885Z,21.88
2022-08-16T00:18:57.010Z,21.93
2022-08-16T00:21:26.159Z,21.96
2022-08-16T00:23:56.507Z,21.96
2022-08-16T00:26:35.446Z,21.98
2022-08-16T00:29:12.698Z,21.93
2022-08-16T00:32:00.460Z,21.96
2022-08-16T00:34:41.287Z,21.98
2022-08-16T00:37:12.024Z,22.01
2022-08-16T00:39:43.898Z,22.08
2022-08-16T00:42:10.927Z,22.10
2022-08-16T00:44:39.847Z,22.13
2022-08-16T00:47:16.387Z,22.12
2022-08-16T00:49:44.777Z,22.17
2022-08-16T00:52:29.450Z,22.18
2022-08-16T00:54:56.890Z,22.05
2022-08-16T00:57:24.189Z,22.05
2022-08-16T00:59:58.681Z,21.91
2022-08-16T01:02:31.504Z,21.96
2022-08-16T01:05:04.606Z,22.04
2022-08-16T01:07:51.883Z,22.09
2022-08-16T01:10:31.831Z,22.18
2022-08-16T01:13:19.202Z,22.26
2022-08-16T01:15:52.854Z,22.34
2022-08-16T01:18:40.456Z,22.31
2022-08-16T01:21:40.788Z,22.35
2022-08-16T01:24:52.119Z,22.29
2022-08-16T01:27:46.280Z,22.27
2022-08-16T01:30:19.663Z,22.15
2022-08-16T01:33:01.243Z,22.08
2022-08-16T01:35:36.221Z,21.99
2022-08-16T01:38:35.602Z,21.97
2022-08-16T01:41:19.194Z,21.78
2022-08-16T01:43:53.693Z,21.62
2022-08-16T01:46:39.213Z,21.57
2022-08-16T01:49:18.921Z,21.42
2022-08-16T01:51:55.251Z,21.29
2022-08-16T01:54:31.262Z,21.19
2022-08-16T01:56:59.260Z,21.07
2022-08-16T01:59:26.343Z,21.13
2022-08-16T02:01:59.998Z,21.08
2022-08-16T02:04:48.410Z,21.11
2022-08-16T02:07:18.620Z,21.15
2022-08-16T02:09:57.031Z,21.14
2022-08-16T02:12:50.244Z,21.05
2022-08-16T02:15:24.911Z,20.99
2022-08-16T02:17:54.083Z,21.11
2022-08-16T02:20:26.329Z,21.12
2022-08-16T02:22:58.651Z,21.15
2022-08-16T02:25:50.957Z,21.18
2022-08-16T02:28:17.188Z,21.23
2022-08-16T02:30:50.530Z,21.25
2022-08-16T02:33:18.594Z,21.08
2022-08-16T02:35:53.935Z,21.12
2022-08-16T02:38:26.722Z,21.17
2022-08-16T02:40:54.852Z,21.21
2022-08-16T02:43:26.781Z,21.24
2022-08-16T02:45:54.880Z,21.29
2022-08-16T02:48:30.615Z,21.34
2022-08-16T02:51:11.001Z,21.33
2022-08-16T02:53:45.491Z,21.25
2022-08-16T02:56:15.988Z,21.20
2022-08-16T02:58:48.551Z,21.15
2022-08-16T03:01:25.354Z,21.18
2022-08-16T03:04:40.667Z,21.21
2022-08-16T03:06:56.781Z,21.24
2022-08-16T03:09:25.474Z,21.24
2022-08-16T03:11:57.382Z,21.29
2022-08-16T03:14:25.372Z,21.30
2022-08-16T03:16:59.238Z,21.28
2022-08-16T03:19:48.433Z,21.27
2022-08-16T03:22:28.677Z,21.30
2022-08-16T03:24:58.406Z,21.27
2022-08-16T03:27:30.986Z,21.25
2022-08-16T03:30:00.802Z,21.20
2022-08-16T03:32:27.701Z,21.19
2022-08-16T03:34:55.192Z,21.12
2022-08-16T03:37:22.331Z,21.17
2022-08-16T03:39:49.751Z,21.14
2022-08-16T03:42:23.972Z,21.16
2022-08-16T03:44:51.082Z,21.19
2022-08-16T03:47:20.571Z,21.19
2022-08-16T03:49:51.771Z,21.11
2022-08-16T03:52:23.551Z,21.16
2022-08-16T03:54:57.759Z,21.14
2022-08-16T03:57:32.138Z,21.15
2022-08-16T04:00:35.401Z,21.12
2022-08-16T04:03:08.646Z,21.08
2022-08-16T04:05:46.736Z,21.05
2022-08-16T04:08:23.184Z,21.01
2022-08-16T04:10:53.328Z,21.12
2022-08-16T04:13:59.891Z,21.29
2022-08-16T04:16:26.179Z,21.47
2022-08-16T04:19:02.496Z,21.68
2022-08-16T04:21:32.365Z,21.83
2022-08-16T04:24:00.355Z,22.06
2022-08-16T04:26:31.198Z,22.27
2022-08-16T04:29:14.796Z,22.23
2022-08-16T04:31:45.472Z,22.48
2022-08-16T04:34:13.005Z,22.73
2022-08-16T04:36:40.493Z,22.91
2022-08-16T04:39:07.782Z,23.05
2022-08-16T04:41:37.357Z,23.20
2022-08-16T04:44:31.089Z,23.48
2022-08-16T04:47:03.463Z,23.58
2022-08-16T04:49:45.735Z,23.73
2022-08-16T04:52:33.496Z,23.83
2022-08-16T04:55:00.604Z,24.05
2022-08-16T04:57:30.144Z,24.12
2022-08-16T04:59:57.452Z,24.20
2022-08-16T05:02:42.201Z,24.24
2022-08-16T05:05:17.645Z,24.43
2022-08-16T05:07:58.370Z,24.58
2022-08-16T05:10:29.556Z,24.75
2022-08-16T05:12:58.222Z,25.01
2022-08-16T05:15:25.912Z,25.24
2022-08-16T05:17:58.937Z,25.60
2022-08-16T05:20:38.407Z,25.88
2022-08-16T05:23:13.755Z,26.09
2022-08-16T05:25:48.782Z,26.40
2022-08-16T05:28:17.993Z,26.77
2022-08-16T05:30:45.346Z,27.06
2022-08-16T05:33:18.305Z,27.04
2022-08-16T05:35:55.230Z,26.76
2022-08-16T05:38:32.766Z,26.43
2022-08-16T05:41:07.305Z,26.59
2022-08-16T05:43:42.951Z,27.07
2022-08-16T05:46:30.914Z,27.46
2022-08-16T05:49:09.133Z,27.70
2022-08-16T05:51:40.085Z,28.01
2022-08-16T05:54:11.527Z,28.38
2022-08-16T05:56:43.172Z,28.46
2022-08-16T05:59:10.773Z,28.84
2022-08-16T06:01:39.054Z,29.20
2022-08-16T06:04:13.531Z,29.28
2022-08-16T06:06:57.036Z,29.33
2022-08-16T06:09:43.798Z,29.44
2022-08-16T06:12:26.744Z,29.42
2022-08-16T06:15:04.529Z,29.88
2022-08-16T06:17:42.901Z,30.05
2022-08-16T06:20:35.243Z,30.32
2022-08-16T06:23:17.125Z,30.53
2022-08-16T06:25:52.943Z,30.80
2022-08-16T06:28:34.817Z,30.92
2022-08-16T06:31:05.104Z,31.12
2022-08-16T06:33:41.317Z,31.23
2022-08-16T06:36:13.993Z,31.44
2022-08-16T06:38:55.558Z,31.73
2022-08-16T06:41:27.374Z,31.79
2022-08-16T06:43:55.434Z,31.90
2022-08-16T06:46:34.347Z,31.94
2022-08-16T06:49:05.177Z,31.94
2022-08-16T06:51:45.998Z,31.61
2022-08-16T06:54:15.109Z,31.67
2022-08-16T06:56:42.747Z,31.80
2022-08-16T06:59:10.940Z,31.77
2022-08-16T07:01:44.713Z,32.09
2022-08-16T07:04:31.670Z,31.26
2022-08-16T07:06:59.670Z,31.03
2022-08-16T07:09:29.579Z,31.30
2022-08-16T07:12:03.467Z,31.44
2022-08-16T07:14:33.068Z,31.80
2022-08-16T07:17:00.158Z,32.08
2022-08-16T07:20:01.323Z,32.46
2022-08-16T07:22:38.316Z,32.76
2022-08-16T07:25:08.408Z,33.13
2022-08-16T07:27:37.325Z,33.32
2022-08-16T07:30:39.636Z,33.58
2022-08-16T07:32:56.298Z,33.59
2022-08-16T07:35:23.568Z,33.76
2022-08-16T07:37:50.470Z,33.96
2022-08-16T07:40:17.597Z,34.04
2022-08-16T07:42:44.569Z,34.14
2022-08-16T07:45:13.067Z,34.33
2022-08-16T07:47:41.993Z,34.19
2022-08-16T07:50:09.947Z,34.21
2022-08-16T07:52:56.807Z,34.28
2022-08-16T07:55:27.247Z,33.67
2022-08-16T07:57:59.957Z,33.68
2022-08-16T08:00:28.587Z,33.85
2022-08-16T08:02:59.857Z,33.77
2022-08-16T08:05:35.786Z,33.57
2022-08-16T08:08:11.905Z,33.53
2022-08-16T08:10:52.765Z,33.72
2022-08-16T08:13:19.676Z,34.06
2022-08-16T08:16:07.106Z,34.25
2022-08-16T08:18:50.258Z,34.21
2022-08-16T08:21:27.322Z,34.14
2022-08-16T08:23:56.806Z,34.35
2022-08-16T08:26:24.655Z,34.46
2022-08-16T08:28:51.795Z,34.71
2022-08-16T08:31:18.876Z,34.98
2022-08-16T08:33:51.298Z,35.07
2022-08-16T08:36:33.059Z,35.16
2022-08-16T08:39:00.735Z,35.30
2022-08-16T08:41:29.096Z,34.86
2022-08-16T08:43:57.574Z,35.06
2022-08-16T08:46:25.943Z,35.24
2022-08-16T08:49:00.125Z,35.19
2022-08-16T08:51:35.900Z,35.25
2022-08-16T08:54:09.581Z,34.99
2022-08-16T08:56:45.667Z,35.18
2022-08-16T08:59:19.803Z,35.28
2022-08-16T09:01:58.148Z,35.06
2022-08-16T09:04:27.688Z,34.82
2022-08-16T09:06:55.905Z,34.86
2022-08-16T09:09:25.533Z,34.80
2022-08-16T09:12:06.351Z,34.93
2022-08-16T09:14:35.543Z,34.96
2022-08-16T09:17:14.210Z,34.64
2022-08-16T09:19:55.145Z,35.00
2022-08-16T09:22:25.205Z,34.99
2022-08-16T09:24:58.126Z,35.06
2022-08-16T09:27:57.290Z,35.21
2022-08-16T09:30:34.535Z,35.39
2022-08-16T09:33:11.947Z,35.26
2022-08-16T09:35:39.452Z,35.31
2022-08-16T09:38:10.107Z,35.42
2022-08-16T09:40:44.183Z,35.45
2022-08-16T09:43:46.311Z,35.47
2022-08-16T09:46:02.701Z,35.62
2022-08-16T09:48:44.036Z,35.64
2022-08-16T09:51:13.323Z,35.69
2022-08-16T09:53:42.055Z,35.63
2022-08-16T09:56:27.756Z,34.98
2022-08-16T09:59:04.774Z,34.86
2022-08-16T10:01:34.803Z,34.48
2022-08-16T10:04:04.187Z,34.56
2022-08-16T10:06:34.155Z,34.69
2022-08-16T10:09:08.194Z,34.94
2022-08-16T10:11:56.982Z,34.75
2022-08-16T10:14:40.831Z,34.43
2022-08-16T10:17:13.182Z,34.34
2022-08-16T10:19:40.171Z,34.41
2022-08-16T10:22:07.153Z,34.32
2022-08-16T10:24:34.499Z,34.45
2022-08-16T10:27:26.094Z,34.47
2022-08-16T10:29:59.399Z,34.38
2022-08-16T10:32:32.219Z,34.45
2022-08-16T10:34:59.624Z,34.27
2022-08-16T10:37:32.767Z,34.13
2022-08-16T10:40:28.390Z,34.32
2022-08-16T10:42:56.672Z,34.46
2022-08-16T10:46:00.255Z,34.56
2022-08-16T10:48:31.307Z,34.65
2022-08-16T10:50:59.270Z,34.48
2022-08-16T10:53:32.343Z,34.81
2022-08-16T10:56:51.700Z,35.02
2022-08-16T10:59:29.622Z,35.09
2022-08-16T11:02:21.686Z,35.21
2022-08-16T11:12:56.534Z,35.34
2022-08-16T11:15:24.633Z,35.35
2022-08-16T11:20:49.361Z,34.82
2022-08-16T11:23:18.422Z,34.80
2022-08-16T11:26:10.445Z,34.69
2022-08-16T11:31:29.793Z,34.87
2022-08-16T11:34:00.373Z,34.88
2022-08-16T11:36:28.494Z,34.95
2022-08-16T11:38:58.825Z,34.89
2022-08-16T11:41:30.813Z,34.70
2022-08-16T11:43:57.934Z,34.75
2022-08-16T11:46:44.772Z,34.81
2022-08-16T11:49:13.836Z,34.77
2022-08-16T11:51:44.237Z,34.63
2022-08-16T11:54:20.770Z,34.78
2022-08-16T11:56:52.732Z,34.85
2022-08-16T11:59:28.512Z,34.73
2022-08-16T12:02:04.448Z,34.60
2022-08-16T12:04:46.644Z,34.63
2022-08-16T12:07:24.104Z,34.66
2022-08-16T12:09:54.876Z,34.50
2022-08-16T12:12:23.937Z,34.41
2022-08-16T12:15:00.079Z,34.55
2022-08-16T12:17:31.479Z,34.57
2022-08-16T12:20:01.121Z,34.56
2022-08-16T12:22:28.814Z,34.67
2022-08-16T12:24:55.834Z,34.66
2022-08-16T12:27:24.980Z,34.68
2022-08-16T12:29:58.646Z,34.68
2022-08-16T12:32:38.258Z,34.79
2022-08-16T12:35:12.350Z,34.85
2022-08-16T12:37:41.654Z,34.78
2022-08-16T12:40:22.453Z,34.82
2022-08-16T12:42:54.854Z,34.71
2022-08-16T12:45:29.335Z,34.41
2022-08-16T12:48:33.819Z,34.21
2022-08-16T12:54:04.526Z,34.13
2022-08-16T12:56:35.706Z,34.28
2022-08-16T12:59:11.620Z,34.23
2022-08-16T13:01:42.024Z,34.16
2022-08-16T13:04:12.043Z,34.22
2022-08-16T13:06:49.010Z,33.93
2022-08-16T13:09:21.484Z,33.97
2022-08-16T13:12:19.967Z,33.93
2022-08-16T13:14:50.168Z,33.97
2022-08-16T13:17:23.839Z,33.86
2022-08-16T13:20:11.128Z,33.61
2022-08-16T13:22:44.985Z,33.60
2022-08-16T13:25:19.425Z,33.56
2022-08-16T13:28:02.822Z,33.35
2022-08-16T13:30:36.221Z,33.26
2022-08-16T13:33:12.367Z,33.16
2022-08-16T13:35:45.219Z,33.23
2022-08-16T13:38:24.679Z,33.26
2022-08-16T13:40:57.834Z,33.04
2022-08-16T13:43:28.892Z,32.91
2022-08-16T13:46:04.487Z,32.82
2022-08-16T13:48:42.659Z,32.69
2022-08-16T13:51:17.986Z,32.79
2022-08-16T13:53:59.174Z,32.62
2022-08-16T13:56:34.465Z,32.60
2022-08-16T13:59:19.971Z,32.85
2022-08-16T14:01:54.748Z,33.25
2022-08-16T14:04:28.419Z,33.46
2022-08-16T14:06:57.995Z,33.63
2022-08-16T14:09:27.118Z,33.80
2022-08-16T14:11:55.131Z,34.03
2022-08-16T14:14:28.848Z,34.23
2022-08-16T14:17:02.193Z,34.34
2022-08-16T14:19:30.060Z,34.19
2022-08-16T14:22:13.404Z,34.23
2022-08-16T14:24:47.137Z,34.18
2022-08-16T14:27:17.152Z,34.18
2022-08-16T14:29:45.671Z,34.11
2022-08-16T14:32:33.705Z,34.13
2022-08-16T14:35:07.458Z,34.09
2022-08-16T14:37:35.777Z,34.05
2022-08-16T14:40:04.471Z,33.95
2022-08-16T14:42:32.113Z,33.89
2022-08-16T14:45:00.444Z,33.90
2022-08-16T14:47:34.380Z,33.93
2022-08-16T14:50:02.344Z,33.89
2022-08-16T14:52:54.061Z,33.71
2022-08-16T14:58:35.064Z,33.68
2022-08-16T15:01:13.696Z,33.43
2022-08-16T15:03:44.683Z,33.08
2022-08-16T15:06:13.198Z,32.95
2022-08-16T15:08:45.893Z,32.84
2022-08-16T15:11:18.498Z,32.87
2022-08-16T15:13:48.485Z,32.93
2022-08-16T15:16:18.995Z,33.02
2022-08-16T15:18:46.878Z,33.04
2022-08-16T15:21:14.023Z,33.02
2022-08-16T15:23:41.354Z,32.99
2022-08-16T15:26:08.983Z,32.96
2022-08-16T15:28:38.257Z,32.96
2022-08-16T15:31:08.663Z,32.84
2022-08-16T15:33:44.333Z,32.85
2022-08-16T15:36:31.946Z,32.76
2022-08-16T15:39:07.794Z,32.74
2022-08-16T15:41:47.948Z,32.68
2022-08-16T15:44:22.445Z,32.58
2022-08-16T15:46:56.633Z,32.53
2022-08-16T15:49:38.039Z,32.48
2022-08-16T15:52:18.501Z,32.42
2022-08-16T15:54:53.401Z,32.35
2022-08-16T15:57:27.644Z,32.28
2022-08-16T15:59:55.822Z,32.22
2022-08-16T16:02:29.653Z,32.13
2022-08-16T16:05:00.719Z,32.11
2022-08-16T16:07:30.075Z,32.03
2022-08-16T16:09:59.386Z,31.98
2022-08-16T16:12:50.942Z,31.90
2022-08-16T16:15:22.945Z,31.76
2022-08-16T16:17:50.735Z,31.61
2022-08-16T16:20:21.472Z,31.52
2022-08-16T16:22:50.186Z,31.51
2022-08-16T16:25:18.751Z,31.45
2022-08-16T16:27:46.870Z,31.37
2022-08-16T16:30:33.331Z,31.32
2022-08-16T16:33:15.486Z,31.01
2022-08-16T16:35:55.467Z,31.00
2022-08-16T16:38:29.072Z,30.98
2022-08-16T16:41:00.127Z,30.92
2022-08-16T16:43:31.606Z,30.86
2022-08-16T16:46:01.699Z,30.77
2022-08-16T16:48:34.900Z,30.67
2022-08-16T16:51:08.690Z,30.59
2022-08-16T16:53:41.455Z,30.49
2022-08-16T16:56:20.043Z,30.39
2022-08-16T16:58:56.597Z,30.13
2022-08-16T17:01:41.401Z,30.16
2022-08-16T17:04:22.257Z,30.04
2022-08-16T17:06:53.570Z,30.01
2022-08-16T17:09:24.659Z,29.87
2022-08-16T17:11:54.970Z,29.82
2022-08-16T17:14:33.376Z,29.70
2022-08-16T17:17:05.231Z,29.59
2022-08-16T17:19:32.851Z,29.47
2022-08-16T17:22:01.522Z,29.36
2022-08-16T17:24:39.475Z,29.22
2022-08-16T17:27:08.415Z,29.10
2022-08-16T17:29:42.928Z,29.01
2022-08-16T17:32:34.066Z,28.90
2022-08-16T17:35:10.166Z,28.73
2022-08-16T17:37:48.715Z,28.64
2022-08-16T17:40:46.914Z,28.52
2022-08-16T17:43:18.995Z,28.44
2022-08-16T17:45:47.496Z,28.26
2022-08-16T17:48:15.145Z,28.21
2022-08-16T17:50:48.758Z,28.12
2022-08-16T17:53:50.565Z,28.00
2022-08-16T17:56:18.419Z,27.87
2022-08-16T17:58:45.455Z,27.68
2022-08-16T18:01:13.329Z,27.68
2022-08-16T18:04:07.148Z,27.48
2022-08-16T18:06:29.504Z,27.43
2022-08-16T18:09:03.692Z,27.30
2022-08-16T18:11:35.540Z,27.06
2022-08-16T18:14:02.636Z,27.09
2022-08-16T18:16:32.697Z,26.86
2022-08-16T18:19:00.624Z,26.71
2022-08-16T18:21:46.504Z,26.79
2022-08-16T18:24:15.235Z,26.71
2022-08-16T18:26:42.411Z,26.59
2022-08-16T18:29:09.486Z,26.54
2022-08-16T18:31:36.741Z,26.42
2022-08-16T18:34:05.401Z,26.36
2022-08-16T18:36:34.076Z,26.14
2022-08-16T18:39:02.213Z,26.18
2022-08-16T18:41:30.931Z,26.06
2022-08-16T18:44:25.747Z,26.04
2022-08-16T18:46:50.727Z,26.10
2022-08-16T18:49:19.146Z,26.04
2022-08-16T18:51:46.526Z,26.09
2022-08-16T18:54:17.254Z,26.09
2022-08-16T18:56:56.389Z,26.06
2022-08-16T18:59:29.878Z,26.04
2022-08-16T19:02:00.336Z,26.01
2022-08-16T19:04:56.080Z,25.99
2022-08-16T19:07:22.025Z,25.95
2022-08-16T19:09:49.244Z,25.90
2022-08-16T19:12:16.335Z,25.80
2022-08-16T19:14:45.944Z,25.76
2022-08-16T19:17:12.954Z,25.81
2022-08-16T19:19:39.889Z,25.72
2022-08-16T19:22:06.885Z,25.81
2022-08-16T19:24:33.924Z,25.83
2022-08-16T19:27:01.675Z,25.83
2022-08-16T19:29:31.874Z,25.84
2022-08-16T19:31:58.745Z,25.78
2022-08-16T19:34:26.742Z,25.69
2022-08-16T19:36:54.436Z,25.71
2022-08-16T19:39:21.455Z,25.61
2022-08-16T19:41:53.874Z,25.59
2022-08-16T19:44:24.607Z,25.52
2022-08-16T19:46:51.815Z,25.57
2022-08-16T19:49:18.887Z,25.61
2022-08-16T19:51:47.001Z,25.61
2022-08-16T19:54:14.027Z,25.57
2022-08-16T19:56:41.104Z,25.62
2022-08-16T19:59:39.534Z,25.61
2022-08-16T20:01:55.216Z,25.64
2022-08-16T20:04:24.164Z,25.66
2022-08-16T20:06:52.353Z,25.72
2022-08-16T20:09:20.502Z,25.63
2022-08-16T20:11:48.557Z,25.64
2022-08-16T20:14:24.466Z,25.70
2022-08-16T20:16:54.855Z,25.73
2022-08-16T20:19:21.726Z,25.71
2022-08-16T20:21:48.835Z,25.56
2022-08-16T20:24:33.413Z,25.56
2022-08-16T20:27:06.420Z,25.62
2022-08-16T20:29:34.171Z,25.63
2022-08-16T20:32:01.243Z,25.61
2022-08-16T20:34:28.369Z,25.60
2022-08-16T20:36:55.469Z,25.50
2022-08-16T20:39:24.327Z,25.38
2022-08-16T20:41:51.560Z,25.40
2022-08-16T20:44:22.720Z,25.47
2022-08-16T20:46:50.094Z,25.46
2022-08-16T20:49:17.039Z,25.50
2022-08-16T20:51:49.946Z,25.48
2022-08-16T20:54:18.461Z,25.47
2022-08-16T20:56:45.354Z,25.47
2022-08-16T20:59:12.689Z,25.47
2022-08-16T21:01:45.897Z,25.47
2022-08-16T21:04:19.406Z,25.46
2022-08-16T21:06:54.266Z,25.46
2022-08-16T21:09:24.591Z,25.43
2022-08-16T21:11:53.219Z,25.37
2022-08-16T21:14:20.269Z,25.34
2022-08-16T21:16:47.300Z,25.39
2022-08-16T21:19:14.439Z,25.35
2022-08-16T21:21:41.411Z,25.35
2022-08-16T21:24:08.529Z,25.37
2022-08-16T21:26:38.845Z,25.39
2022-08-16T21:29:07.674Z,25.32
2022-08-16T21:31:40.581Z,25.19
2022-08-16T21:34:08.619Z,25.09
2022-08-16T21:36:36.467Z,24.78
2022-08-16T21:39:06.643Z,24.63
2022-08-16T21:41:35.336Z,24.48
2022-08-16T21:44:02.619Z,24.48
2022-08-16T21:46:29.620Z,24.30
2022-08-16T21:48:56.689Z,24.34
2022-08-16T21:51:23.700Z,24.38
2022-08-16T21:53:50.619Z,24.32
2022-08-16T21:56:17.919Z,24.32
2022-08-16T21:58:46.305Z,24.35
2022-08-16T22:01:38.588Z,24.32
2022-08-16T22:04:38.105Z,24.25
2022-08-16T22:06:52.689Z,24.24
2022-08-16T22:09:19.781Z,24.19
2022-08-16T22:11:46.894Z,24.11
2022-08-16T22:14:13.892Z,23.92
2022-08-16T22:16:42.127Z,24.07
2022-08-16T22:19:10.197Z,23.88
2022-08-16T22:21:38.481Z,23.84
2022-08-16T22:24:05.830Z,23.68
2022-08-16T22:26:36.808Z,23.71
2022-08-16T22:29:11.744Z,23.71
2022-08-16T22:31:40.651Z,23.57
2022-08-16T22:34:09.128Z,23.63
2022-08-16T22:36:36.553Z,23.69
2022-08-16T22:39:07.085Z,23.72
2022-08-16T22:41:35.517Z,23.71
2022-08-16T22:44:15.636Z,23.67
2022-08-16T22:46:42.828Z,23.73
2022-08-16T22:49:11.090Z,23.68
2022-08-16T22:51:39.447Z,23.62
2022-08-16T22:54:34.355Z,23.70
2022-08-16T22:56:53.877Z,23.62
2022-08-16T22:59:21.994Z,23.64
2022-08-16T23:01:48.936Z,23.60
2022-08-16T23:04:15.918Z,23.65
2022-08-16T23:06:42.885Z,23.68
2022-08-16T23:09:09.844Z,23.67
2022-08-16T23:11:36.956Z,23.63
2022-08-16T23:14:04.049Z,23.76
2022-08-16T23:16:34.769Z,23.64
2022-08-16T23:19:09.216Z,23.59
2022-08-16T23:21:38.715Z,23.57
2022-08-16T23:24:07.483Z,23.45
2022-08-16T23:26:44.721Z,23.42
2022-08-16T23:29:22.288Z,23.34
2022-08-16T23:31:57.385Z,23.30
2022-08-16T23:34:25.251Z,23.24
2022-08-16T23:36:52.339Z,23.21
2022-08-16T23:39:19.455Z,23.18
2022-08-16T23:41:46.347Z,23.16
2022-08-16T23:44:42.123Z,23.12
2022-08-16T23:47:00.081Z,23.08
2022-08-16T23:49:57.197Z,23.11
2022-08-16T23:52:14.891Z,23.17
2022-08-16T23:54:41.934Z,23.13
2022-08-16T23:57:08.785Z,23.17
2022-08-16T23:59:52.495Z,23.14
